sensor_id;sensor_type;location;lat;lon;timestamp;P1;durP1;ratioP1;P2;durP2;ratioP2
8952;SDS011;4511;50.890;8.054;2022-09-30T00:00:29;20.77;;;7.90;;
8952;SDS011;4511;50.890;8.054;2022-09-30T00:02:56;10.27;;;6.87;;
8952;SDS011;4511;50.890;8.054;2022-09-30T00:05:23;18.83;;;7.87;;
8952;SDS011;4511;50.890;8.054;2022-09-30T00:07:51;288.40;;;13.13;;
8952;SDS011;4511;50.890;8.054;2022-09-30T00:10:18;112.00;;;9.73;;
8952;SDS011;4511;50.890;8.054;2022-09-30T00:12:44;55.50;;;8.60;;
8952;SDS011;4511;50.890;8.054;2022-09-30T00:15:12;30.53;;;7.50;;
8952;SDS011;4511;50.890;8.054;2022-09-30T00:17:39;59.23;;;8.50;;
8952;SDS011;4511;50.890;8.054;2022-09-30T00:20:06;40.53;;;7.33;;
8952;SDS011;4511;50.890;8.054;2022-09-30T00:22:33;39.60;;;7.47;;
8952;SDS011;4511;50.890;8.054;2022-09-30T00:25:01;36.20;;;7.57;;
8952;SDS011;4511;50.890;8.054;2022-09-30T00:27:29;22.00;;;7.27;;
8952;SDS011;4511;50.890;8.054;2022-09-30T00:29:55;20.20;;;6.77;;
8952;SDS011;4511;50.890;8.054;2022-09-30T00:32:22;54.87;;;8.30;;
8952;SDS011;4511;50.890;8.054;2022-09-30T00:34:49;44.83;;;7.70;;
8952;SDS011;4511;50.890;8.054;2022-09-30T00:37:15;65.93;;;8.20;;
8952;SDS011;4511;50.890;8.054;2022-09-30T00:39:42;55.87;;;8.90;;
8952;SDS011;4511;50.890;8.054;2022-09-30T00:42:11;20.97;;;7.93;;
8952;SDS011;4511;50.890;8.054;2022-09-30T00:44:50;7.50;;;6.43;;
8952;SDS011;4511;50.890;8.054;2022-09-30T00:50:04;13.47;;;7.50;;
8952;SDS011;4511;50.890;8.054;2022-09-30T00:52:38;9.73;;;7.17;;
8952;SDS011;4511;50.890;8.054;2022-09-30T00:55:06;6.80;;;6.10;;
8952;SDS011;4511;50.890;8.054;2022-09-30T00:57:43;22.23;;;6.77;;
8952;SDS011;4511;50.890;8.054;2022-09-30T01:00:10;122.90;;;9.37;;
8952;SDS011;4511;50.890;8.054;2022-09-30T01:02:37;27.47;;;7.50;;
8952;SDS011;4511;50.890;8.054;2022-09-30T01:05:04;16.17;;;6.73;;
8952;SDS011;4511;50.890;8.054;2022-09-30T01:07:33;11.47;;;6.70;;
8952;SDS011;4511;50.890;8.054;2022-09-30T01:10:01;6.80;;;6.20;;
8952;SDS011;4511;50.890;8.054;2022-09-30T01:12:28;6.03;;;5.53;;
8952;SDS011;4511;50.890;8.054;2022-09-30T01:14:56;59.37;;;7.33;;
8952;SDS011;4511;50.890;8.054;2022-09-30T01:17:27;98.83;;;8.33;;
8952;SDS011;4511;50.890;8.054;2022-09-30T01:20:05;70.67;;;7.93;;
8952;SDS011;4511;50.890;8.054;2022-09-30T01:22:57;269.27;;;12.73;;
8952;SDS011;4511;50.890;8.054;2022-09-30T01:28:41;68.93;;;8.17;;
8952;SDS011;4511;50.890;8.054;2022-09-30T01:31:30;31.37;;;7.10;;
8952;SDS011;4511;50.890;8.054;2022-09-30T01:34:12;82.50;;;8.33;;
8952;SDS011;4511;50.890;8.054;2022-09-30T01:36:49;103.17;;;9.30;;
8952;SDS011;4511;50.890;8.054;2022-09-30T01:39:28;79.43;;;7.83;;
8952;SDS011;4511;50.890;8.054;2022-09-30T01:42:03;49.00;;;7.47;;
8952;SDS011;4511;50.890;8.054;2022-09-30T01:44:38;22.93;;;6.83;;
8952;SDS011;4511;50.890;8.054;2022-09-30T01:47:14;11.90;;;6.37;;
8952;SDS011;4511;50.890;8.054;2022-09-30T01:49:47;21.77;;;6.53;;
8952;SDS011;4511;50.890;8.054;2022-09-30T01:52:20;36.73;;;7.03;;
8952;SDS011;4511;50.890;8.054;2022-09-30T01:54:51;28.53;;;6.70;;
8952;SDS011;4511;50.890;8.054;2022-09-30T01:57:24;193.00;;;10.73;;
8952;SDS011;4511;50.890;8.054;2022-09-30T01:59:57;92.37;;;8.63;;
8952;SDS011;4511;50.890;8.054;2022-09-30T02:02:29;164.33;;;10.13;;
8952;SDS011;4511;50.890;8.054;2022-09-30T02:04:59;42.43;;;7.43;;
8952;SDS011;4511;50.890;8.054;2022-09-30T02:07:30;160.50;;;11.00;;
8952;SDS011;4511;50.890;8.054;2022-09-30T02:10:02;126.30;;;9.60;;
8952;SDS011;4511;50.890;8.054;2022-09-30T02:12:34;157.13;;;10.43;;
8952;SDS011;4511;50.890;8.054;2022-09-30T02:15:09;338.50;;;13.83;;
8952;SDS011;4511;50.890;8.054;2022-09-30T02:17:42;290.83;;;13.27;;
8952;SDS011;4511;50.890;8.054;2022-09-30T02:20:14;281.13;;;13.53;;
8952;SDS011;4511;50.890;8.054;2022-09-30T02:22:47;209.90;;;12.87;;
8952;SDS011;4511;50.890;8.054;2022-09-30T02:25:16;140.37;;;10.73;;
8952;SDS011;4511;50.890;8.054;2022-09-30T02:27:49;89.87;;;9.57;;
8952;SDS011;4511;50.890;8.054;2022-09-30T02:30:19;67.33;;;7.87;;
8952;SDS011;4511;50.890;8.054;2022-09-30T02:32:47;16.33;;;6.07;;
8952;SDS011;4511;50.890;8.054;2022-09-30T02:35:17;36.87;;;6.80;;
8952;SDS011;4511;50.890;8.054;2022-09-30T02:37:48;64.03;;;7.43;;
8952;SDS011;4511;50.890;8.054;2022-09-30T02:40:18;29.07;;;6.23;;
8952;SDS011;4511;50.890;8.054;2022-09-30T02:42:51;13.73;;;5.63;;
8952;SDS011;4511;50.890;8.054;2022-09-30T02:45:19;6.13;;;5.53;;
8952;SDS011;4511;50.890;8.054;2022-09-30T02:47:52;6.30;;;5.70;;
8952;SDS011;4511;50.890;8.054;2022-09-30T02:50:28;6.60;;;6.00;;
8952;SDS011;4511;50.890;8.054;2022-09-30T02:53:00;6.20;;;5.60;;
8952;SDS011;4511;50.890;8.054;2022-09-30T02:55:40;6.13;;;5.63;;
8952;SDS011;4511;50.890;8.054;2022-09-30T02:58:14;7.37;;;5.77;;
8952;SDS011;4511;50.890;8.054;2022-09-30T03:00:44;13.07;;;5.90;;
8952;SDS011;4511;50.890;8.054;2022-09-30T03:03:14;13.50;;;5.60;;
8952;SDS011;4511;50.890;8.054;2022-09-30T03:05:43;5.87;;;5.37;;
8952;SDS011;4511;50.890;8.054;2022-09-30T03:08:10;10.60;;;5.73;;
8952;SDS011;4511;50.890;8.054;2022-09-30T03:10:37;9.57;;;5.23;;
8952;SDS011;4511;50.890;8.054;2022-09-30T03:13:09;6.30;;;5.10;;
8952;SDS011;4511;50.890;8.054;2022-09-30T03:15:49;6.77;;;5.20;;
8952;SDS011;4511;50.890;8.054;2022-09-30T03:18:34;24.77;;;5.73;;
8952;SDS011;4511;50.890;8.054;2022-09-30T03:21:17;103.50;;;7.57;;
8952;SDS011;4511;50.890;8.054;2022-09-30T03:24:04;127.67;;;9.40;;
8952;SDS011;4511;50.890;8.054;2022-09-30T03:26:53;18.53;;;5.67;;
8952;SDS011;4511;50.890;8.054;2022-09-30T03:29:31;12.40;;;5.73;;
8952;SDS011;4511;50.890;8.054;2022-09-30T03:32:05;10.80;;;5.33;;
8952;SDS011;4511;50.890;8.054;2022-09-30T03:34:47;8.63;;;5.67;;
8952;SDS011;4511;50.890;8.054;2022-09-30T03:37:26;97.50;;;6.67;;
8952;SDS011;4511;50.890;8.054;2022-09-30T03:39:59;58.43;;;6.33;;
8952;SDS011;4511;50.890;8.054;2022-09-30T03:42:31;82.53;;;6.70;;
8952;SDS011;4511;50.890;8.054;2022-09-30T03:45:03;31.87;;;5.73;;
8952;SDS011;4511;50.890;8.054;2022-09-30T03:47:32;14.03;;;5.33;;
8952;SDS011;4511;50.890;8.054;2022-09-30T03:50:05;23.93;;;5.77;;
8952;SDS011;4511;50.890;8.054;2022-09-30T03:52:34;20.27;;;5.70;;
8952;SDS011;4511;50.890;8.054;2022-09-30T03:55:03;5.37;;;4.70;;
8952;SDS011;4511;50.890;8.054;2022-09-30T03:57:32;9.03;;;5.73;;
8952;SDS011;4511;50.890;8.054;2022-09-30T03:59:58;15.47;;;5.53;;
8952;SDS011;4511;50.890;8.054;2022-09-30T04:02:25;13.03;;;5.43;;
8952;SDS011;4511;50.890;8.054;2022-09-30T04:04:53;19.43;;;5.40;;
8952;SDS011;4511;50.890;8.054;2022-09-30T04:07:21;53.63;;;6.70;;
8952;SDS011;4511;50.890;8.054;2022-09-30T04:09:48;32.33;;;6.10;;
8952;SDS011;4511;50.890;8.054;2022-09-30T04:12:15;26.73;;;6.07;;
8952;SDS011;4511;50.890;8.054;2022-09-30T04:14:42;16.70;;;5.80;;
8952;SDS011;4511;50.890;8.054;2022-09-30T04:17:08;12.73;;;5.70;;
8952;SDS011;4511;50.890;8.054;2022-09-30T04:19:35;6.67;;;5.40;;
8952;SDS011;4511;50.890;8.054;2022-09-30T04:22:04;12.30;;;5.70;;
8952;SDS011;4511;50.890;8.054;2022-09-30T04:24:32;28.10;;;6.00;;
8952;SDS011;4511;50.890;8.054;2022-09-30T04:26:59;30.97;;;6.20;;
8952;SDS011;4511;50.890;8.054;2022-09-30T04:29:26;15.63;;;5.57;;
8952;SDS011;4511;50.890;8.054;2022-09-30T04:31:53;7.10;;;5.33;;
8952;SDS011;4511;50.890;8.054;2022-09-30T04:34:19;7.10;;;5.40;;
8952;SDS011;4511;50.890;8.054;2022-09-30T04:36:46;5.50;;;5.00;;
8952;SDS011;4511;50.890;8.054;2022-09-30T04:39:13;5.50;;;5.10;;
8952;SDS011;4511;50.890;8.054;2022-09-30T04:41:41;7.80;;;5.23;;
8952;SDS011;4511;50.890;8.054;2022-09-30T04:44:08;5.57;;;5.07;;
8952;SDS011;4511;50.890;8.054;2022-09-30T04:46:35;5.83;;;5.33;;
8952;SDS011;4511;50.890;8.054;2022-09-30T04:49:02;6.40;;;5.90;;
8952;SDS011;4511;50.890;8.054;2022-09-30T04:51:29;5.60;;;5.20;;
8952;SDS011;4511;50.890;8.054;2022-09-30T04:53:56;6.00;;;5.50;;
8952;SDS011;4511;50.890;8.054;2022-09-30T04:56:23;6.47;;;5.87;;
8952;SDS011;4511;50.890;8.054;2022-09-30T04:58:52;6.97;;;6.37;;
8952;SDS011;4511;50.890;8.054;2022-09-30T05:01:19;20.53;;;7.73;;
8952;SDS011;4511;50.890;8.054;2022-09-30T05:03:46;24.80;;;6.73;;
8952;SDS011;4511;50.890;8.054;2022-09-30T05:06:13;20.07;;;6.00;;
8952;SDS011;4511;50.890;8.054;2022-09-30T05:08:41;19.23;;;6.20;;
8952;SDS011;4511;50.890;8.054;2022-09-30T05:11:09;15.27;;;5.73;;
8952;SDS011;4511;50.890;8.054;2022-09-30T05:13:39;46.67;;;29.77;;
8952;SDS011;4511;50.890;8.054;2022-09-30T05:16:08;24.17;;;18.10;;
8952;SDS011;4511;50.890;8.054;2022-09-30T05:18:36;12.30;;;4.77;;
8952;SDS011;4511;50.890;8.054;2022-09-30T05:21:03;14.60;;;6.03;;
8952;SDS011;4511;50.890;8.054;2022-09-30T05:23:31;62.30;;;43.37;;
8952;SDS011;4511;50.890;8.054;2022-09-30T05:25:58;14.97;;;6.20;;
8952;SDS011;4511;50.890;8.054;2022-09-30T05:28:25;20.40;;;6.03;;
8952;SDS011;4511;50.890;8.054;2022-09-30T05:30:53;18.93;;;6.00;;
8952;SDS011;4511;50.890;8.054;2022-09-30T05:33:24;16.57;;;5.80;;
8952;SDS011;4511;50.890;8.054;2022-09-30T05:35:53;16.87;;;5.97;;
8952;SDS011;4511;50.890;8.054;2022-09-30T05:38:20;6.67;;;6.03;;
8952;SDS011;4511;50.890;8.054;2022-09-30T05:40:47;5.73;;;5.17;;
8952;SDS011;4511;50.890;8.054;2022-09-30T05:43:14;9.87;;;5.87;;
8952;SDS011;4511;50.890;8.054;2022-09-30T05:45:40;12.17;;;6.80;;
8952;SDS011;4511;50.890;8.054;2022-09-30T05:48:07;15.53;;;7.83;;
8952;SDS011;4511;50.890;8.054;2022-09-30T05:50:35;14.27;;;5.87;;
8952;SDS011;4511;50.890;8.054;2022-09-30T05:53:02;113.47;;;8.13;;
8952;SDS011;4511;50.890;8.054;2022-09-30T05:55:28;102.63;;;8.87;;
8952;SDS011;4511;50.890;8.054;2022-09-30T05:57:55;10.50;;;6.23;;
8952;SDS011;4511;50.890;8.054;2022-09-30T06:00:22;15.17;;;6.17;;
8952;SDS011;4511;50.890;8.054;2022-09-30T06:02:52;14.80;;;7.07;;
8952;SDS011;4511;50.890;8.054;2022-09-30T06:05:18;18.87;;;7.70;;
8952;SDS011;4511;50.890;8.054;2022-09-30T06:07:47;27.13;;;6.80;;
8952;SDS011;4511;50.890;8.054;2022-09-30T06:10:14;16.80;;;6.67;;
8952;SDS011;4511;50.890;8.054;2022-09-30T06:12:41;16.63;;;6.20;;
8952;SDS011;4511;50.890;8.054;2022-09-30T06:15:08;8.50;;;6.60;;
8952;SDS011;4511;50.890;8.054;2022-09-30T06:17:35;6.70;;;6.10;;
8952;SDS011;4511;50.890;8.054;2022-09-30T06:20:02;9.00;;;6.40;;
8952;SDS011;4511;50.890;8.054;2022-09-30T06:22:31;6.30;;;5.80;;
8952;SDS011;4511;50.890;8.054;2022-09-30T06:25:01;7.00;;;6.30;;
8952;SDS011;4511;50.890;8.054;2022-09-30T06:27:29;10.87;;;6.63;;
8952;SDS011;4511;50.890;8.054;2022-09-30T06:29:55;31.57;;;7.83;;
8952;SDS011;4511;50.890;8.054;2022-09-30T06:32:22;12.53;;;7.20;;
8952;SDS011;4511;50.890;8.054;2022-09-30T06:34:50;7.03;;;6.13;;
8952;SDS011;4511;50.890;8.054;2022-09-30T06:37:19;7.57;;;6.60;;
8952;SDS011;4511;50.890;8.054;2022-09-30T06:39:46;6.90;;;6.33;;
8952;SDS011;4511;50.890;8.054;2022-09-30T06:42:14;9.60;;;7.20;;
8952;SDS011;4511;50.890;8.054;2022-09-30T06:44:41;13.17;;;7.40;;
8952;SDS011;4511;50.890;8.054;2022-09-30T06:47:08;9.23;;;7.03;;
8952;SDS011;4511;50.890;8.054;2022-09-30T06:49:35;9.17;;;7.07;;
8952;SDS011;4511;50.890;8.054;2022-09-30T06:52:02;9.80;;;7.43;;
8952;SDS011;4511;50.890;8.054;2022-09-30T06:54:29;10.37;;;6.90;;
8952;SDS011;4511;50.890;8.054;2022-09-30T06:56:56;7.70;;;7.00;;
8952;SDS011;4511;50.890;8.054;2022-09-30T06:59:24;8.50;;;7.70;;
8952;SDS011;4511;50.890;8.054;2022-09-30T07:01:51;8.73;;;7.73;;
8952;SDS011;4511;50.890;8.054;2022-09-30T07:04:19;9.17;;;8.27;;
8952;SDS011;4511;50.890;8.054;2022-09-30T07:06:47;9.27;;;8.47;;
8952;SDS011;4511;50.890;8.054;2022-09-30T07:09:13;8.23;;;7.13;;
8952;SDS011;4511;50.890;8.054;2022-09-30T07:11:40;7.40;;;6.80;;
8952;SDS011;4511;50.890;8.054;2022-09-30T07:14:07;8.07;;;7.30;;
8952;SDS011;4511;50.890;8.054;2022-09-30T07:16:35;8.00;;;7.20;;
8952;SDS011;4511;50.890;8.054;2022-09-30T07:19:03;8.37;;;7.57;;
8952;SDS011;4511;50.890;8.054;2022-09-30T07:21:31;8.20;;;7.50;;
8952;SDS011;4511;50.890;8.054;2022-09-30T07:23:58;8.57;;;7.77;;
8952;SDS011;4511;50.890;8.054;2022-09-30T07:26:25;9.03;;;8.13;;
8952;SDS011;4511;50.890;8.054;2022-09-30T07:28:53;9.20;;;8.37;;
8952;SDS011;4511;50.890;8.054;2022-09-30T07:31:21;8.83;;;8.00;;
8952;SDS011;4511;50.890;8.054;2022-09-30T07:33:50;7.47;;;6.77;;
8952;SDS011;4511;50.890;8.054;2022-09-30T07:36:17;8.20;;;7.40;;
8952;SDS011;4511;50.890;8.054;2022-09-30T07:38:46;9.33;;;8.43;;
8952;SDS011;4511;50.890;8.054;2022-09-30T07:41:16;9.63;;;8.67;;
8952;SDS011;4511;50.890;8.054;2022-09-30T07:43:46;8.43;;;7.50;;
8952;SDS011;4511;50.890;8.054;2022-09-30T07:46:16;13.30;;;7.27;;
8952;SDS011;4511;50.890;8.054;2022-09-30T07:48:45;7.87;;;7.17;;
8952;SDS011;4511;50.890;8.054;2022-09-30T07:51:17;8.63;;;7.80;;
8952;SDS011;4511;50.890;8.054;2022-09-30T07:53:46;7.83;;;7.13;;
8952;SDS011;4511;50.890;8.054;2022-09-30T07:56:14;8.57;;;7.77;;
8952;SDS011;4511;50.890;8.054;2022-09-30T07:58:41;9.07;;;7.37;;
8952;SDS011;4511;50.890;8.054;2022-09-30T08:01:09;8.03;;;7.23;;
8952;SDS011;4511;50.890;8.054;2022-09-30T08:03:37;8.10;;;7.27;;
8952;SDS011;4511;50.890;8.054;2022-09-30T08:06:06;8.30;;;7.53;;
8952;SDS011;4511;50.890;8.054;2022-09-30T08:08:35;8.80;;;8.00;;
8952;SDS011;4511;50.890;8.054;2022-09-30T08:11:03;8.93;;;8.03;;
8952;SDS011;4511;50.890;8.054;2022-09-30T08:13:31;10.10;;;9.10;;
8952;SDS011;4511;50.890;8.054;2022-09-30T08:15:58;9.63;;;8.33;;
8952;SDS011;4511;50.890;8.054;2022-09-30T08:18:25;10.90;;;9.13;;
8952;SDS011;4511;50.890;8.054;2022-09-30T08:20:52;9.73;;;8.23;;
8952;SDS011;4511;50.890;8.054;2022-09-30T08:23:19;9.40;;;8.50;;
8952;SDS011;4511;50.890;8.054;2022-09-30T08:25:47;9.40;;;8.50;;
8952;SDS011;4511;50.890;8.054;2022-09-30T08:28:14;9.13;;;7.93;;
8952;SDS011;4511;50.890;8.054;2022-09-30T08:30:42;12.93;;;8.20;;
8952;SDS011;4511;50.890;8.054;2022-09-30T08:33:09;8.50;;;7.70;;
8952;SDS011;4511;50.890;8.054;2022-09-30T08:35:35;6.70;;;6.10;;
8952;SDS011;4511;50.890;8.054;2022-09-30T08:38:02;8.50;;;7.70;;
8952;SDS011;4511;50.890;8.054;2022-09-30T08:40:29;8.50;;;7.53;;
8952;SDS011;4511;50.890;8.054;2022-09-30T08:43:06;10.73;;;7.80;;
8952;SDS011;4511;50.890;8.054;2022-09-30T08:45:42;12.87;;;8.93;;
8952;SDS011;4511;50.890;8.054;2022-09-30T08:48:27;11.53;;;8.70;;
8952;SDS011;4511;50.890;8.054;2022-09-30T08:51:07;11.77;;;9.50;;
8952;SDS011;4511;50.890;8.054;2022-09-30T08:53:48;10.23;;;9.20;;
8952;SDS011;4511;50.890;8.054;2022-09-30T08:56:19;10.90;;;9.17;;
8952;SDS011;4511;50.890;8.054;2022-09-30T08:58:50;10.53;;;9.40;;
8952;SDS011;4511;50.890;8.054;2022-09-30T09:01:21;10.13;;;8.93;;
8952;SDS011;4511;50.890;8.054;2022-09-30T09:03:55;9.70;;;8.70;;
8952;SDS011;4511;50.890;8.054;2022-09-30T09:06:24;12.63;;;9.43;;
8952;SDS011;4511;50.890;8.054;2022-09-30T09:09:10;11.60;;;9.27;;
8952;SDS011;4511;50.890;8.054;2022-09-30T09:11:58;11.73;;;8.93;;
8952;SDS011;4511;50.890;8.054;2022-09-30T09:14:37;9.40;;;8.37;;
8952;SDS011;4511;50.890;8.054;2022-09-30T09:17:11;9.97;;;5.70;;
8952;SDS011;4511;50.890;8.054;2022-09-30T09:19:46;5.37;;;4.83;;
8952;SDS011;4511;50.890;8.054;2022-09-30T09:22:16;7.47;;;6.03;;
8952;SDS011;4511;50.890;8.054;2022-09-30T09:24:44;8.40;;;5.40;;
8952;SDS011;4511;50.890;8.054;2022-09-30T09:27:18;4.37;;;3.97;;
8952;SDS011;4511;50.890;8.054;2022-09-30T09:29:51;5.77;;;4.60;;
8952;SDS011;4511;50.890;8.054;2022-09-30T09:32:26;6.97;;;6.17;;
8952;SDS011;4511;50.890;8.054;2022-09-30T09:34:55;5.97;;;5.37;;
8952;SDS011;4511;50.890;8.054;2022-09-30T09:37:27;6.23;;;5.60;;
8952;SDS011;4511;50.890;8.054;2022-09-30T09:40:19;6.20;;;5.40;;
8952;SDS011;4511;50.890;8.054;2022-09-30T09:43:01;6.17;;;4.80;;
8952;SDS011;4511;50.890;8.054;2022-09-30T09:45:39;5.80;;;4.30;;
8952;SDS011;4511;50.890;8.054;2022-09-30T09:48:13;7.13;;;4.10;;
8952;SDS011;4511;50.890;8.054;2022-09-30T09:50:43;5.07;;;4.30;;
8952;SDS011;4511;50.890;8.054;2022-09-30T09:53:21;7.93;;;4.50;;
8952;SDS011;4511;50.890;8.054;2022-09-30T09:56:10;6.00;;;4.00;;
8952;SDS011;4511;50.890;8.054;2022-09-30T10:01:37;6.23;;;3.77;;
8952;SDS011;4511;50.890;8.054;2022-09-30T10:04:07;6.27;;;4.23;;
8952;SDS011;4511;50.890;8.054;2022-09-30T10:06:46;4.90;;;3.70;;
8952;SDS011;4511;50.890;8.054;2022-09-30T10:09:23;6.47;;;4.33;;
8952;SDS011;4511;50.890;8.054;2022-09-30T10:14:54;7.13;;;4.00;;
8952;SDS011;4511;50.890;8.054;2022-09-30T10:17:26;6.83;;;4.30;;
8952;SDS011;4511;50.890;8.054;2022-09-30T10:19:57;4.83;;;4.03;;
8952;SDS011;4511;50.890;8.054;2022-09-30T10:22:26;6.00;;;4.20;;
8952;SDS011;4511;50.890;8.054;2022-09-30T10:25:18;9.70;;;4.47;;
8952;SDS011;4511;50.890;8.054;2022-09-30T10:27:53;5.73;;;3.90;;
8952;SDS011;4511;50.890;8.054;2022-09-30T10:30:29;6.10;;;4.00;;
8952;SDS011;4511;50.890;8.054;2022-09-30T10:33:04;6.00;;;4.17;;
8952;SDS011;4511;50.890;8.054;2022-09-30T10:35:54;5.00;;;4.30;;
8952;SDS011;4511;50.890;8.054;2022-09-30T10:38:37;4.37;;;3.90;;
8952;SDS011;4511;50.890;8.054;2022-09-30T10:41:20;3.17;;;2.80;;
8952;SDS011;4511;50.890;8.054;2022-09-30T10:43:49;4.93;;;3.17;;
8952;SDS011;4511;50.890;8.054;2022-09-30T10:46:20;3.63;;;2.87;;
8952;SDS011;4511;50.890;8.054;2022-09-30T10:48:50;3.87;;;2.70;;
8952;SDS011;4511;50.890;8.054;2022-09-30T10:51:23;2.93;;;2.20;;
8952;SDS011;4511;50.890;8.054;2022-09-30T10:53:52;5.07;;;2.80;;
8952;SDS011;4511;50.890;8.054;2022-09-30T10:56:36;3.87;;;2.30;;
8952;SDS011;4511;50.890;8.054;2022-09-30T10:59:06;6.63;;;2.10;;
8952;SDS011;4511;50.890;8.054;2022-09-30T11:01:45;3.67;;;2.30;;
8952;SDS011;4511;50.890;8.054;2022-09-30T11:04:18;3.43;;;2.30;;
8952;SDS011;4511;50.890;8.054;2022-09-30T11:06:53;3.50;;;2.47;;
8952;SDS011;4511;50.890;8.054;2022-09-30T11:09:25;3.10;;;2.00;;
8952;SDS011;4511;50.890;8.054;2022-09-30T11:12:01;3.00;;;2.03;;
8952;SDS011;4511;50.890;8.054;2022-09-30T11:14:37;3.23;;;1.90;;
8952;SDS011;4511;50.890;8.054;2022-09-30T11:17:09;2.53;;;2.10;;
8952;SDS011;4511;50.890;8.054;2022-09-30T11:19:50;2.07;;;1.90;;
8952;SDS011;4511;50.890;8.054;2022-09-30T11:22:28;3.63;;;2.20;;
8952;SDS011;4511;50.890;8.054;2022-09-30T11:24:58;2.87;;;2.40;;
8952;SDS011;4511;50.890;8.054;2022-09-30T11:27:29;3.88;;;2.28;;
8952;SDS011;4511;50.890;8.054;2022-09-30T11:30:10;3.50;;;2.20;;
8952;SDS011;4511;50.890;8.054;2022-09-30T11:32:50;2.80;;;2.37;;
8952;SDS011;4511;50.890;8.054;2022-09-30T11:35:32;3.20;;;2.33;;
8952;SDS011;4511;50.890;8.054;2022-09-30T11:38:10;4.00;;;2.23;;
8952;SDS011;4511;50.890;8.054;2022-09-30T11:40:55;4.53;;;2.30;;
8952;SDS011;4511;50.890;8.054;2022-09-30T11:43:31;2.60;;;2.40;;
8952;SDS011;4511;50.890;8.054;2022-09-30T11:46:11;2.60;;;2.40;;
8952;SDS011;4511;50.890;8.054;2022-09-30T11:51:52;2.77;;;2.53;;
8952;SDS011;4511;50.890;8.054;2022-09-30T11:54:31;4.37;;;2.60;;
8952;SDS011;4511;50.890;8.054;2022-09-30T11:57:12;3.57;;;2.70;;
8952;SDS011;4511;50.890;8.054;2022-09-30T11:59:45;5.40;;;2.40;;
8952;SDS011;4511;50.890;8.054;2022-09-30T12:02:25;2.97;;;2.40;;
8952;SDS011;4511;50.890;8.054;2022-09-30T12:04:57;2.97;;;2.50;;
8952;SDS011;4511;50.890;8.054;2022-09-30T12:07:33;1.93;;;1.77;;
8952;SDS011;4511;50.890;8.054;2022-09-30T12:10:05;2.67;;;2.00;;
8952;SDS011;4511;50.890;8.054;2022-09-30T12:12:41;4.40;;;2.33;;
8952;SDS011;4511;50.890;8.054;2022-09-30T12:15:12;3.83;;;2.13;;
8952;SDS011;4511;50.890;8.054;2022-09-30T12:17:44;2.30;;;2.10;;
8952;SDS011;4511;50.890;8.054;2022-09-30T12:20:14;1.80;;;1.70;;
8952;SDS011;4511;50.890;8.054;2022-09-30T12:22:45;4.07;;;1.60;;
8952;SDS011;4511;50.890;8.054;2022-09-30T12:25:14;2.17;;;1.97;;
8952;SDS011;4511;50.890;8.054;2022-09-30T12:27:45;3.10;;;1.90;;
8952;SDS011;4511;50.890;8.054;2022-09-30T12:30:20;2.40;;;1.73;;
8952;SDS011;4511;50.890;8.054;2022-09-30T12:33:01;1.93;;;1.73;;
8952;SDS011;4511;50.890;8.054;2022-09-30T12:35:47;1.87;;;1.77;;
8952;SDS011;4511;50.890;8.054;2022-09-30T12:38:31;2.33;;;1.57;;
8952;SDS011;4511;50.890;8.054;2022-09-30T12:41:15;1.90;;;1.80;;
8952;SDS011;4511;50.890;8.054;2022-09-30T12:44:03;1.93;;;1.50;;
8952;SDS011;4511;50.890;8.054;2022-09-30T12:46:58;2.77;;;1.70;;
8952;SDS011;4511;50.890;8.054;2022-09-30T12:49:35;1.70;;;1.60;;
8952;SDS011;4511;50.890;8.054;2022-09-30T12:52:06;1.90;;;1.70;;
8952;SDS011;4511;50.890;8.054;2022-09-30T12:54:41;1.70;;;1.60;;
8952;SDS011;4511;50.890;8.054;2022-09-30T12:57:12;1.70;;;1.47;;
8952;SDS011;4511;50.890;8.054;2022-09-30T12:59:47;1.30;;;1.30;;
8952;SDS011;4511;50.890;8.054;2022-09-30T13:02:24;1.50;;;1.40;;
8952;SDS011;4511;50.890;8.054;2022-09-30T13:04:56;1.87;;;1.50;;
8952;SDS011;4511;50.890;8.054;2022-09-30T13:08:15;1.73;;;1.53;;
8952;SDS011;4511;50.890;8.054;2022-09-30T13:10:54;2.83;;;1.60;;
8952;SDS011;4511;50.890;8.054;2022-09-30T13:13:23;1.70;;;1.60;;
8952;SDS011;4511;50.890;8.054;2022-09-30T13:15:52;2.07;;;1.40;;
8952;SDS011;4511;50.890;8.054;2022-09-30T13:21:24;2.00;;;1.40;;
8952;SDS011;4511;50.890;8.054;2022-09-30T13:23:52;2.33;;;1.30;;
8952;SDS011;4511;50.890;8.054;2022-09-30T13:29:33;1.50;;;1.40;;
8952;SDS011;4511;50.890;8.054;2022-09-30T13:32:04;3.40;;;2.97;;
8952;SDS011;4511;50.890;8.054;2022-09-30T13:34:32;1.80;;;1.70;;
8952;SDS011;4511;50.890;8.054;2022-09-30T13:37:27;1.63;;;1.53;;
8952;SDS011;4511;50.890;8.054;2022-09-30T13:40:05;1.47;;;1.37;;
8952;SDS011;4511;50.890;8.054;2022-09-30T13:42:44;3.60;;;2.10;;
8952;SDS011;4511;50.890;8.054;2022-09-30T13:45:17;2.77;;;1.50;;
8952;SDS011;4511;50.890;8.054;2022-09-30T13:47:48;2.07;;;1.53;;
8952;SDS011;4511;50.890;8.054;2022-09-30T13:50:24;1.43;;;1.30;;
8952;SDS011;4511;50.890;8.054;2022-09-30T13:52:57;1.43;;;1.30;;
8952;SDS011;4511;50.890;8.054;2022-09-30T13:55:30;1.50;;;1.40;;
8952;SDS011;4511;50.890;8.054;2022-09-30T13:58:02;2.40;;;1.70;;
8952;SDS011;4511;50.890;8.054;2022-09-30T14:00:46;1.60;;;1.50;;
8952;SDS011;4511;50.890;8.054;2022-09-30T14:03:29;2.27;;;1.83;;
8952;SDS011;4511;50.890;8.054;2022-09-30T14:06:09;2.77;;;1.60;;
8952;SDS011;4511;50.890;8.054;2022-09-30T14:08:51;1.87;;;1.77;;
8952;SDS011;4511;50.890;8.054;2022-09-30T14:11:40;3.50;;;2.77;;
8952;SDS011;4511;50.890;8.054;2022-09-30T14:14:21;2.20;;;2.00;;
8952;SDS011;4511;50.890;8.054;2022-09-30T14:17:08;1.70;;;1.60;;
8952;SDS011;4511;50.890;8.054;2022-09-30T14:19:52;1.90;;;1.40;;
8952;SDS011;4511;50.890;8.054;2022-09-30T14:22:29;2.73;;;1.70;;
8952;SDS011;4511;50.890;8.054;2022-09-30T14:24:57;2.73;;;1.60;;
8952;SDS011;4511;50.890;8.054;2022-09-30T14:27:28;2.70;;;1.53;;
8952;SDS011;4511;50.890;8.054;2022-09-30T14:30:16;1.70;;;1.60;;
8952;SDS011;4511;50.890;8.054;2022-09-30T14:32:45;2.93;;;2.73;;
8952;SDS011;4511;50.890;8.054;2022-09-30T14:35:15;1.70;;;1.60;;
8952;SDS011;4511;50.890;8.054;2022-09-30T14:37:45;31.23;;;29.33;;
8952;SDS011;4511;50.890;8.054;2022-09-30T14:40:15;1.70;;;1.60;;
8952;SDS011;4511;50.890;8.054;2022-09-30T14:42:45;1.83;;;1.73;;
8952;SDS011;4511;50.890;8.054;2022-09-30T14:45:18;1.80;;;1.70;;
8952;SDS011;4511;50.890;8.054;2022-09-30T14:47:50;2.03;;;1.83;;
8952;SDS011;4511;50.890;8.054;2022-09-30T14:50:23;1.70;;;1.60;;
8952;SDS011;4511;50.890;8.054;2022-09-30T14:52:52;3.00;;;2.80;;
8952;SDS011;4511;50.890;8.054;2022-09-30T14:55:24;2.43;;;1.63;;
8952;SDS011;4511;50.890;8.054;2022-09-30T14:57:56;1.90;;;1.80;;
8952;SDS011;4511;50.890;8.054;2022-09-30T15:00:48;1.80;;;1.70;;
8952;SDS011;4511;50.890;8.054;2022-09-30T15:03:22;3.40;;;3.20;;
8952;SDS011;4511;50.890;8.054;2022-09-30T15:05:48;2.23;;;1.70;;
8952;SDS011;4511;50.890;8.054;2022-09-30T15:08:16;2.13;;;2.03;;
8952;SDS011;4511;50.890;8.054;2022-09-30T15:10:46;2.03;;;1.93;;
8952;SDS011;4511;50.890;8.054;2022-09-30T15:13:15;3.20;;;3.00;;
8952;SDS011;4511;50.890;8.054;2022-09-30T15:15:43;2.00;;;1.90;;
8952;SDS011;4511;50.890;8.054;2022-09-30T15:18:23;1.93;;;1.83;;
8952;SDS011;4511;50.890;8.054;2022-09-30T15:20:51;2.00;;;1.90;;
8952;SDS011;4511;50.890;8.054;2022-09-30T15:23:20;3.03;;;2.73;;
8952;SDS011;4511;50.890;8.054;2022-09-30T15:25:50;2.27;;;2.00;;
8952;SDS011;4511;50.890;8.054;2022-09-30T15:28:19;13.70;;;12.67;;
8952;SDS011;4511;50.890;8.054;2022-09-30T15:30:46;2.20;;;2.00;;
8952;SDS011;4511;50.890;8.054;2022-09-30T15:33:16;2.10;;;2.00;;
8952;SDS011;4511;50.890;8.054;2022-09-30T15:35:45;2.03;;;1.93;;
8952;SDS011;4511;50.890;8.054;2022-09-30T15:38:15;2.40;;;2.30;;
8952;SDS011;4511;50.890;8.054;2022-09-30T15:40:46;2.23;;;2.03;;
8952;SDS011;4511;50.890;8.054;2022-09-30T15:43:30;2.53;;;2.07;;
8952;SDS011;4511;50.890;8.054;2022-09-30T15:48:43;4.07;;;2.37;;
8952;SDS011;4511;50.890;8.054;2022-09-30T15:51:31;2.50;;;1.90;;
8952;SDS011;4511;50.890;8.054;2022-09-30T15:54:00;4.00;;;3.80;;
8952;SDS011;4511;50.890;8.054;2022-09-30T15:56:41;2.60;;;2.40;;
8952;SDS011;4511;50.890;8.054;2022-09-30T15:59:10;3.20;;;2.00;;
8952;SDS011;4511;50.890;8.054;2022-09-30T16:01:38;2.00;;;1.90;;
8952;SDS011;4511;50.890;8.054;2022-09-30T16:04:08;2.20;;;2.00;;